Time;durP1;ratioP1;P1;durP2;ratioP2;P2;SDS_P1;SDS_P2;PMS_P1;PMS_P2;Temp;Humidity;BMP_temperature;BMP_pressure;BME280_temperature;BME280_humidity;BME280_pressure;Samples;Min_cycle;Max_cycle;Signal;HPM_P1;HPM_P2
2021/06/30 00:01:47;;;;;;;11.48;2.90;;;24.70;99.90;;;;;;5082902;28;20270;-73
2021/06/30 00:04:13;;;;;;;9.27;2.92;;;24.60;99.90;;;;;;5083457;28;20190;-73
2021/06/30 00:06:40;;;;;;;12.45;3.05;;;24.60;99.90;;;;;;5081642;28;20194;-72
2021/06/30 00:09:06;;;;;;;7.45;3.03;;;24.60;99.90;;;;;;5094978;28;20233;-72
2021/06/30 00:11:32;;;;;;;4.97;2.97;;;24.50;99.90;;;;;;5084025;28;20178;-72
2021/06/30 00:13:59;;;;;;;10.07;2.83;;;24.50;99.90;;;;;;5082546;28;20183;-73
2021/06/30 00:16:31;;;;;;;6.85;2.67;;;24.60;99.90;;;;;;5098343;27;20312;-74
2021/06/30 00:19:01;;;;;;;10.57;3.17;;;24.60;99.90;;;;;;5079881;28;20188;-73
2021/06/30 00:21:27;;;;;;;9.90;3.00;;;24.60;99.90;;;;;;5080368;28;20190;-73
2021/06/30 00:23:55;;;;;;;5.30;2.40;;;24.70;99.90;;;;;;5073661;28;20198;-73
2021/06/30 00:26:21;;;;;;;11.80;3.08;;;24.70;99.90;;;;;;5082804;28;20253;-73
2021/06/30 00:28:47;;;;;;;9.13;2.95;;;24.70;99.90;;;;;;5082770;28;20726;-73
2021/06/30 00:31:15;;;;;;;11.98;2.88;;;24.60;99.90;;;;;;5077624;28;20633;-73
2021/06/30 00:33:41;;;;;;;8.93;2.88;;;24.50;99.90;;;;;;5085685;28;20186;-72
2021/06/30 00:36:09;;;;;;;8.70;2.78;;;24.50;99.90;;;;;;5084213;28;20202;-73
2021/06/30 00:38:35;;;;;;;12.20;3.13;;;24.40;99.90;;;;;;5085535;28;20216;-73
2021/06/30 00:41:02;;;;;;;11.40;3.40;;;24.40;99.90;;;;;;5081441;28;20197;-72
2021/06/30 00:43:29;;;;;;;7.35;2.70;;;24.30;99.90;;;;;;5098391;27;20186;-72
2021/06/30 00:45:55;;;;;;;8.25;3.05;;;24.30;99.90;;;;;;5068252;28;20190;-72
2021/06/30 00:48:22;;;;;;;10.18;3.30;;;24.30;99.90;;;;;;5098193;27;20230;-73
2021/06/30 00:50:48;;;;;;;10.43;3.10;;;24.30;99.90;;;;;;5083317;28;20193;-72
2021/06/30 00:53:15;;;;;;;7.93;3.00;;;24.30;99.90;;;;;;5079494;28;20182;-72
2021/06/30 00:55:41;;;;;;;5.78;3.13;;;24.30;99.90;;;;;;5077386;28;20206;-73
2021/06/30 00:58:08;;;;;;;6.07;3.00;;;24.30;99.90;;;;;;5083840;28;20182;-73
2021/06/30 01:00:34;;;;;;;10.65;3.15;;;24.30;99.90;;;;;;5098685;28;20248;-72
2021/06/30 01:03:02;;;;;;;11.15;3.78;;;24.20;99.90;;;;;;5080917;28;20273;-72
2021/06/30 01:05:28;;;;;;;7.95;3.03;;;24.20;99.90;;;;;;5081718;28;20204;-72
2021/06/30 01:07:54;;;;;;;9.33;2.97;;;24.10;99.90;;;;;;5068574;28;20674;-73
2021/06/30 01:10:21;;;;;;;7.97;3.10;;;24.10;99.90;;;;;;5081044;28;20182;-73
2021/06/30 01:12:47;;;;;;;9.50;3.30;;;24.10;99.90;;;;;;5098345;28;20174;-71
2021/06/30 01:15:13;;;;;;;8.77;3.17;;;24.10;99.90;;;;;;5096644;27;20278;-73
2021/06/30 01:17:43;;;;;;;8.40;3.15;;;24.10;99.90;;;;;;5067100;28;20196;-72
2021/06/30 01:20:10;;;;;;;8.68;3.15;;;24.00;99.90;;;;;;5084615;28;20182;-72
2021/06/30 01:22:36;;;;;;;5.60;3.03;;;24.00;99.90;;;;;;5086125;28;20186;-72
2021/06/30 01:25:04;;;;;;;9.38;3.30;;;24.00;99.90;;;;;;5098600;27;20186;-73
2021/06/30 01:27:33;;;;;;;7.97;3.00;;;24.10;99.90;;;;;;5077493;28;20185;-71
2021/06/30 01:29:59;;;;;;;12.10;3.05;;;24.00;99.90;;;;;;5100027;28;20225;-73
2021/06/30 01:32:26;;;;;;;8.93;3.17;;;24.00;99.90;;;;;;5084323;28;20563;-73
2021/06/30 01:34:52;;;;;;;10.32;3.15;;;24.10;99.90;;;;;;5096072;28;20196;-72
2021/06/30 01:37:19;;;;;;;8.30;3.15;;;24.00;99.90;;;;;;5086975;28;20208;-73
2021/06/30 01:39:45;;;;;;;7.18;3.10;;;24.00;99.90;;;;;;5085017;28;20193;-73
2021/06/30 01:42:11;;;;;;;9.40;3.20;;;24.00;99.90;;;;;;5085232;28;20190;-72
2021/06/30 01:44:37;;;;;;;11.50;3.17;;;24.00;99.90;;;;;;5098292;28;20189;-72
2021/06/30 01:47:04;;;;;;;7.45;2.88;;;24.00;99.90;;;;;;5085416;28;20256;-73
2021/06/30 01:49:30;;;;;;;10.23;3.13;;;24.00;99.90;;;;;;5088977;28;20214;-73
2021/06/30 01:51:56;;;;;;;13.23;3.22;;;24.00;99.90;;;;;;5101486;28;20181;-73
2021/06/30 01:54:23;;;;;;;11.32;3.53;;;24.00;99.90;;;;;;5088630;28;20567;-73
2021/06/30 01:56:49;;;;;;;12.10;3.37;;;24.00;99.90;;;;;;5090456;28;20720;-72
2021/06/30 01:59:17;;;;;;;7.27;3.47;;;23.90;99.90;;;;;;5100265;28;20281;-73
2021/06/30 02:01:44;;;;;;;7.53;2.90;;;23.90;99.90;;;;;;5085408;28;20197;-72
2021/06/30 02:04:11;;;;;;;14.05;3.42;;;24.00;99.90;;;;;;5082837;28;20194;-72
2021/06/30 02:06:41;;;;;;;8.90;2.97;;;24.00;99.90;;;;;;5066751;28;20327;-74
2021/06/30 02:09:11;;;;;;;7.07;2.85;;;24.00;99.50;;;;;;5084586;28;20224;-73
2021/06/30 02:11:39;;;;;;;8.70;3.13;;;24.10;99.10;;;;;;5081959;28;20190;-72
2021/06/30 02:14:08;;;;;;;8.20;3.22;;;24.00;98.40;;;;;;5070382;28;20290;-72
2021/06/30 02:16:35;;;;;;;10.48;2.65;;;24.10;98.20;;;;;;5086291;28;20827;-72
2021/06/30 02:19:06;;;;;;;5.97;3.40;;;24.10;98.10;;;;;;5083798;28;20714;-73
2021/06/30 02:21:37;;;;;;;12.45;2.70;;;24.10;98.40;;;;;;5069937;28;20186;-73
2021/06/30 02:24:05;;;;;;;10.95;3.08;;;24.00;98.20;;;;;;5104156;28;20181;-72
2021/06/30 02:26:34;;;;;;;11.27;2.93;;;24.00;98.10;;;;;;5081802;28;20201;-72
2021/06/30 02:29:01;;;;;;;10.03;2.90;;;24.10;97.80;;;;;;5061412;28;20216;-72
2021/06/30 02:31:27;;;;;;;7.28;2.72;;;24.10;97.90;;;;;;5073466;28;20186;-73
2021/06/30 02:33:53;;;;;;;15.17;3.00;;;24.10;97.70;;;;;;5090894;28;20328;-73
2021/06/30 02:36:20;;;;;;;11.30;3.00;;;24.10;97.80;;;;;;5091821;28;20199;-72
2021/06/30 02:38:47;;;;;;;10.87;3.10;;;24.10;97.50;;;;;;5108253;27;20194;-72
2021/06/30 02:41:14;;;;;;;8.38;2.60;;;24.10;97.30;;;;;;5106310;27;20201;-74
2021/06/30 02:43:41;;;;;;;11.85;3.00;;;24.10;97.30;;;;;;5092802;28;20256;-72
2021/06/30 02:46:09;;;;;;;4.72;1.98;;;24.00;97.80;;;;;;5088208;28;20194;-72
2021/06/30 02:48:36;;;;;;;10.48;2.85;;;24.10;97.40;;;;;;5104389;27;20263;-73
2021/06/30 02:51:02;;;;;;;7.22;2.40;;;24.10;97.00;;;;;;5094942;28;20178;-72
2021/06/30 02:53:28;;;;;;;7.75;2.67;;;24.10;97.10;;;;;;5104572;27;20865;-73
2021/06/30 02:55:54;;;;;;;10.87;3.03;;;24.10;96.70;;;;;;5078242;28;20235;-73
2021/06/30 02:58:21;;;;;;;7.10;2.90;;;24.10;97.00;;;;;;5078203;28;20193;-72
2021/06/30 03:00:47;;;;;;;6.70;2.83;;;24.20;97.20;;;;;;5089539;28;20715;-71
2021/06/30 03:03:13;;;;;;;13.07;2.78;;;24.20;97.10;;;;;;5086349;28;20197;-73
2021/06/30 03:05:40;;;;;;;9.48;2.95;;;24.20;96.80;;;;;;5090409;28;20174;-72
2021/06/30 03:08:06;;;;;;;8.73;2.78;;;24.30;97.10;;;;;;5087793;28;20242;-72
2021/06/30 03:10:32;;;;;;;10.27;2.92;;;24.30;97.30;;;;;;5088499;28;20243;-72
2021/06/30 03:12:59;;;;;;;7.23;2.43;;;24.30;97.30;;;;;;5121937;27;20186;-73
2021/06/30 03:15:25;;;;;;;9.33;3.33;;;24.30;97.60;;;;;;5091957;28;20198;-73
2021/06/30 03:17:52;;;;;;;10.00;2.97;;;24.30;97.80;;;;;;5108821;27;20642;-72
2021/06/30 03:20:18;;;;;;;7.77;2.90;;;24.40;97.50;;;;;;5091325;28;20189;-74
2021/06/30 03:22:44;;;;;;;10.20;3.10;;;24.30;97.50;;;;;;5091553;28;20190;-72
2021/06/30 03:25:14;;;;;;;8.93;2.53;;;24.40;97.60;;;;;;5092266;28;20300;-72
2021/06/30 03:27:40;;;;;;;8.57;2.60;;;24.30;97.70;;;;;;5071698;28;20186;-72
2021/06/30 03:30:09;;;;;;;8.25;2.35;;;24.40;98.00;;;;;;5097213;27;20677;-73
2021/06/30 03:32:36;;;;;;;8.48;2.40;;;24.40;97.50;;;;;;5089120;28;20229;-72
2021/06/30 03:35:05;;;;;;;10.43;3.17;;;24.40;97.70;;;;;;5104321;27;20619;-73
2021/06/30 03:37:32;;;;;;;7.10;2.85;;;24.40;97.50;;;;;;5070228;28;20278;-73
2021/06/30 03:39:58;;;;;;;5.78;2.40;;;24.40;97.50;;;;;;5084330;28;20321;-72
2021/06/30 03:42:25;;;;;;;10.77;2.72;;;24.40;97.90;;;;;;5073174;28;20834;-73
2021/06/30 03:44:52;;;;;;;8.38;2.70;;;24.40;98.00;;;;;;5103271;27;20186;-73
2021/06/30 03:47:19;;;;;;;14.73;3.17;;;24.40;98.40;;;;;;5089817;28;20264;-73
2021/06/30 03:49:45;;;;;;;7.30;2.22;;;24.50;98.50;;;;;;5104319;27;20206;-71
2021/06/30 03:52:12;;;;;;;5.57;2.63;;;24.50;98.70;;;;;;5087409;28;20186;-72
2021/06/30 03:54:38;;;;;;;11.65;2.33;;;24.50;98.60;;;;;;5086502;28;20175;-72
2021/06/30 03:57:04;;;;;;;5.28;2.35;;;24.50;98.40;;;;;;5087219;28;20193;-72
2021/06/30 03:59:31;;;;;;;7.93;2.65;;;24.50;98.80;;;;;;5083670;28;20197;-73
2021/06/30 04:01:58;;;;;;;9.70;2.63;;;24.60;98.90;;;;;;5084189;28;20219;-72
2021/06/30 04:04:25;;;;;;;7.20;2.20;;;24.60;99.10;;;;;;5083299;28;20249;-72
2021/06/30 04:06:52;;;;;;;5.53;2.30;;;24.60;99.00;;;;;;5067922;28;20706;-72
2021/06/30 04:09:18;;;;;;;6.18;2.63;;;24.60;98.70;;;;;;5085468;28;20393;-73
2021/06/30 04:11:44;;;;;;;5.70;2.72;;;24.60;99.10;;;;;;5067524;28;20205;-72
2021/06/30 04:14:11;;;;;;;7.53;2.38;;;24.70;99.30;;;;;;5087767;28;20213;-72
2021/06/30 04:16:37;;;;;;;6.60;2.47;;;24.70;99.40;;;;;;5103790;27;20181;-72
2021/06/30 04:19:04;;;;;;;10.77;2.50;;;24.70;99.30;;;;;;5091846;28;20225;-72
2021/06/30 04:21:30;;;;;;;10.35;2.45;;;24.70;99.40;;;;;;5084107;28;20312;-72
2021/06/30 04:23:56;;;;;;;7.35;2.28;;;24.70;99.70;;;;;;5088626;28;20194;-73
2021/06/30 04:26:24;;;;;;;5.03;2.72;;;24.70;99.70;;;;;;5083645;28;20186;-71
2021/06/30 04:28:51;;;;;;;7.22;2.78;;;24.80;99.90;;;;;;5088337;28;20209;-73
2021/06/30 04:31:18;;;;;;;5.72;2.60;;;24.80;99.90;;;;;;5095314;27;20635;-72
2021/06/30 04:33:44;;;;;;;9.95;2.65;;;24.80;99.90;;;;;;5101340;27;20303;-73
2021/06/30 04:36:10;;;;;;;6.35;2.83;;;24.90;99.90;;;;;;5098279;27;20602;-73
2021/06/30 04:38:37;;;;;;;6.82;2.67;;;24.90;99.90;;;;;;5088663;28;20638;-73
2021/06/30 04:41:04;;;;;;;9.13;3.05;;;25.00;99.90;;;;;;5098578;27;20304;-72
2021/06/30 04:43:30;;;;;;;7.00;2.88;;;25.00;99.90;;;;;;5102785;27;20174;-72
2021/06/30 04:45:56;;;;;;;9.75;2.90;;;25.10;99.90;;;;;;5087868;28;20202;-72
2021/06/30 04:48:23;;;;;;;8.98;3.22;;;25.10;99.90;;;;;;5088783;28;20209;-72
2021/06/30 04:50:49;;;;;;;8.02;2.92;;;25.10;99.90;;;;;;5084647;28;20248;-73
2021/06/30 04:53:15;;;;;;;5.22;2.75;;;25.20;99.90;;;;;;5085977;28;20190;-72
2021/06/30 04:55:41;;;;;;;7.25;2.95;;;25.20;99.90;;;;;;5074917;28;20181;-72
2021/06/30 04:58:08;;;;;;;6.80;2.80;;;25.20;99.90;;;;;;5084015;28;20421;-73
2021/06/30 05:00:35;;;;;;;8.07;2.92;;;25.20;99.90;;;;;;5082146;28;20186;-72
2021/06/30 05:03:02;;;;;;;7.78;2.80;;;25.30;99.90;;;;;;5095472;27;20193;-73
2021/06/30 05:05:28;;;;;;;11.38;3.20;;;25.30;99.90;;;;;;5089226;28;20210;-72
2021/06/30 05:07:55;;;;;;;8.55;3.40;;;25.60;99.90;;;;;;5070413;28;20182;-72
2021/06/30 05:10:21;;;;;;;8.52;2.90;;;25.90;99.80;;;;;;5087047;28;20206;-73
2021/06/30 05:12:48;;;;;;;15.32;3.78;;;25.70;99.90;;;;;;5088599;28;20737;-72
2021/06/30 05:15:14;;;;;;;8.98;2.92;;;25.70;99.90;;;;;;5088697;28;20193;-74
2021/06/30 05:17:40;;;;;;;10.98;3.53;;;25.70;99.90;;;;;;5073406;28;20217;-72
2021/06/30 05:20:07;;;;;;;7.18;2.80;;;25.60;99.90;;;;;;5087370;28;20665;-73
2021/06/30 05:22:33;;;;;;;10.55;2.95;;;25.70;99.90;;;;;;5100933;27;20194;-72
2021/06/30 05:25:01;;;;;;;6.93;3.08;;;25.70;99.90;;;;;;5106818;27;20273;-73
2021/06/30 05:27:27;;;;;;;10.18;3.35;;;25.60;99.90;;;;;;5072646;28;20217;-73
2021/06/30 05:29:54;;;;;;;7.53;2.92;;;25.60;99.90;;;;;;5085732;28;20215;-73
2021/06/30 05:32:20;;;;;;;12.32;3.22;;;25.70;99.80;;;;;;5081378;28;20223;-72
2021/06/30 05:34:46;;;;;;;10.13;3.10;;;26.00;98.90;;;;;;5082722;28;20177;-72
2021/06/30 05:37:12;;;;;;;9.43;2.90;;;26.40;98.60;;;;;;5069680;28;20623;-72
2021/06/30 05:39:39;;;;;;;6.03;3.28;;;26.30;99.30;;;;;;5101058;28;20186;-74
2021/06/30 05:42:05;;;;;;;8.40;3.20;;;26.30;99.00;;;;;;5068883;28;20198;-73
2021/06/30 05:44:31;;;;;;;10.75;3.08;;;26.30;99.20;;;;;;5089786;28;20269;-72
2021/06/30 05:46:57;;;;;;;11.40;3.58;;;26.40;99.50;;;;;;5088357;28;20193;-73
2021/06/30 05:49:24;;;;;;;14.52;3.40;;;26.40;99.60;;;;;;5072723;28;20332;-73
2021/06/30 05:51:51;;;;;;;9.30;3.38;;;26.90;99.00;;;;;;5102692;28;20186;-73
2021/06/30 05:54:17;;;;;;;13.00;3.40;;;26.80;99.80;;;;;;5090452;28;20887;-73
2021/06/30 05:56:44;;;;;;;8.23;3.30;;;26.60;99.90;;;;;;5093218;28;20654;-73
2021/06/30 05:59:11;;;;;;;6.88;2.90;;;26.40;99.90;;;;;;5091609;28;20406;-73
2021/06/30 06:01:37;;;;;;;8.43;3.30;;;26.30;99.90;;;;;;5089423;28;20215;-74
2021/06/30 06:04:03;;;;;;;10.35;3.10;;;26.30;99.90;;;;;;5076291;28;20185;-73
2021/06/30 06:06:29;;;;;;;15.50;3.53;;;26.60;99.90;;;;;;5093674;28;20182;-73
2021/06/30 06:08:57;;;;;;;15.88;3.53;;;26.90;99.90;;;;;;5090770;28;20210;-77
2021/06/30 06:11:23;;;;;;;8.13;3.47;;;26.90;99.90;;;;;;5111151;27;21132;-77
2021/06/30 06:13:50;;;;;;;11.82;3.50;;;26.90;99.90;;;;;;5093481;28;20214;-76
2021/06/30 06:16:20;;;;;;;10.13;3.20;;;27.20;99.90;;;;;;5112175;27;20185;-75
2021/06/30 06:18:48;;;;;;;12.25;3.47;;;27.20;99.90;;;;;;5077620;28;20181;-74
2021/06/30 06:21:15;;;;;;;13.25;3.95;;;27.10;99.90;;;;;;5111057;27;20193;-75
2021/06/30 06:23:43;;;;;;;12.07;3.58;;;27.40;99.90;;;;;;5091829;28;20289;-75
2021/06/30 06:26:10;;;;;;;11.02;3.63;;;27.80;99.90;;;;;;5105593;27;20243;-76
2021/06/30 06:28:36;;;;;;;9.60;3.85;;;28.00;99.90;;;;;;5094721;28;20295;-74
2021/06/30 06:31:06;;;;;;;8.43;3.58;;;28.30;99.90;;;;;;5088272;28;20627;-75
2021/06/30 06:33:32;;;;;;;12.20;3.83;;;28.20;99.90;;;;;;5091599;28;20247;-76
2021/06/30 06:35:59;;;;;;;7.78;3.53;;;28.30;99.90;;;;;;5100688;27;20301;-75
2021/06/30 06:38:26;;;;;;;8.02;3.70;;;28.40;99.90;;;;;;5094187;28;20265;-75
2021/06/30 06:40:53;;;;;;;8.27;3.28;;;28.10;99.90;;;;;;5093666;28;20196;-75
2021/06/30 06:43:19;;;;;;;9.10;3.45;;;28.10;99.90;;;;;;5122869;27;20646;-76
2021/06/30 06:45:46;;;;;;;13.93;3.50;;;27.90;99.90;;;;;;5092514;28;20687;-76
2021/06/30 06:48:12;;;;;;;10.65;4.15;;;28.20;99.90;;;;;;5092011;28;20178;-76
2021/06/30 06:50:38;;;;;;;9.00;4.13;;;28.60;99.90;;;;;;5089017;28;20259;-74
2021/06/30 06:53:05;;;;;;;11.98;3.58;;;28.70;99.90;;;;;;5091801;28;20588;-75
2021/06/30 06:55:33;;;;;;;12.80;4.13;;;28.40;99.90;;;;;;5093131;28;20193;-75
2021/06/30 06:57:59;;;;;;;10.45;3.47;;;28.40;99.90;;;;;;5106504;27;20243;-76
2021/06/30 07:00:26;;;;;;;15.60;3.83;;;28.10;99.90;;;;;;5094510;28;20602;-76
2021/06/30 07:02:53;;;;;;;15.38;4.13;;;28.40;99.90;;;;;;5092993;28;20269;-75
2021/06/30 07:05:19;;;;;;;10.38;3.78;;;28.90;99.90;;;;;;5082070;28;20232;-76
2021/06/30 07:07:46;;;;;;;12.10;3.55;;;28.90;99.90;;;;;;5105500;27;20214;-75
2021/06/30 07:10:13;;;;;;;10.20;4.28;;;28.80;99.90;;;;;;5106293;27;20272;-75
2021/06/30 07:12:40;;;;;;;16.55;4.03;;;29.00;99.90;;;;;;5096895;28;20300;-76
2021/06/30 07:15:08;;;;;;;20.25;3.90;;;29.40;99.90;;;;;;5108766;27;20234;-74
2021/06/30 07:17:36;;;;;;;14.48;4.15;;;29.60;99.90;;;;;;5082577;28;20189;-74
2021/06/30 07:20:07;;;;;;;12.98;3.80;;;29.60;99.70;;;;;;5104088;27;20218;-74
2021/06/30 07:22:34;;;;;;;12.55;4.07;;;29.80;99.30;;;;;;5072834;28;20224;-75
2021/06/30 07:25:01;;;;;;;11.60;3.05;;;29.70;99.00;;;;;;5073340;28;20182;-77
2021/06/30 07:27:27;;;;;;;15.80;4.30;;;29.90;99.00;;;;;;5073474;28;20240;-76
2021/06/30 07:29:54;;;;;;;10.25;3.75;;;29.90;98.40;;;;;;5085413;28;20230;-75
2021/06/30 07:32:20;;;;;;;12.40;3.80;;;30.00;98.70;;;;;;5094055;28;20264;-74
2021/06/30 07:34:47;;;;;;;13.68;3.83;;;29.80;98.70;;;;;;5085188;28;20182;-74
2021/06/30 07:37:13;;;;;;;14.73;4.00;;;30.00;98.20;;;;;;5082618;28;20184;-74
2021/06/30 07:39:41;;;;;;;11.85;4.05;;;30.40;97.30;;;;;;5085764;28;20185;-76
2021/06/30 07:42:07;;;;;;;14.07;3.80;;;30.40;97.10;;;;;;5093885;28;20190;-74
2021/06/30 07:44:34;;;;;;;14.27;3.85;;;30.50;97.70;;;;;;5091433;28;20209;-75
2021/06/30 07:47:01;;;;;;;9.43;4.07;;;30.30;97.90;;;;;;5090230;28;20185;-75
2021/06/30 07:49:27;;;;;;;11.02;3.50;;;30.30;97.40;;;;;;5086682;28;20228;-76
2021/06/30 07:51:54;;;;;;;10.90;3.97;;;30.40;97.30;;;;;;5068174;28;20190;-75
2021/06/30 07:54:20;;;;;;;8.82;3.85;;;30.70;97.10;;;;;;5104588;27;20651;-74
2021/06/30 07:56:46;;;;;;;13.05;3.90;;;30.60;96.70;;;;;;5091346;28;20700;-75
2021/06/30 07:59:14;;;;;;;15.07;3.53;;;30.70;96.10;;;;;;5085157;28;20202;-76
2021/06/30 08:01:42;;;;;;;11.32;3.63;;;30.70;96.20;;;;;;5086918;28;20281;-76
2021/06/30 08:04:09;;;;;;;16.08;3.20;;;30.90;95.70;;;;;;5083560;28;20284;-75
2021/06/30 08:06:36;;;;;;;19.95;4.03;;;30.80;96.00;;;;;;5100081;27;20201;-76
2021/06/30 08:09:05;;;;;;;15.77;4.30;;;31.10;95.60;;;;;;5097353;27;20210;-75
2021/06/30 08:11:32;;;;;;;10.90;3.45;;;31.00;95.70;;;;;;5090121;28;20273;-74
2021/06/30 08:13:58;;;;;;;11.23;3.22;;;31.10;96.20;;;;;;5088187;28;20236;-75
2021/06/30 08:16:25;;;;;;;13.70;3.45;;;31.10;95.80;;;;;;5090084;28;20577;-74
2021/06/30 08:18:51;;;;;;;9.38;3.30;;;31.40;94.90;;;;;;5087882;28;20305;-74
2021/06/30 08:21:18;;;;;;;16.25;3.80;;;31.30;94.20;;;;;;5084015;28;20255;-76
2021/06/30 08:23:45;;;;;;;14.05;3.42;;;31.40;94.80;;;;;;5103666;27;20186;-76
2021/06/30 08:26:12;;;;;;;13.15;3.72;;;31.30;94.60;;;;;;5090564;28;20220;-73
2021/06/30 08:28:39;;;;;;;9.13;3.40;;;31.30;94.50;;;;;;5107492;27;20217;-74
2021/06/30 08:31:06;;;;;;;9.10;3.70;;;31.40;94.20;;;;;;5106883;27;20230;-74
2021/06/30 08:33:33;;;;;;;9.30;3.45;;;31.70;93.50;;;;;;5090975;28;20572;-75
2021/06/30 08:35:59;;;;;;;12.55;3.30;;;31.70;92.90;;;;;;5087030;28;20562;-75
2021/06/30 08:38:26;;;;;;;6.50;3.08;;;31.60;93.20;;;;;;5093183;27;20298;-74
2021/06/30 08:41:00;;;;;;;7.15;3.38;;;31.40;94.00;;;;;;5086762;28;20182;-75
2021/06/30 08:43:27;;;;;;;10.93;3.50;;;31.70;93.90;;;;;;5105166;27;20186;-74
2021/06/30 08:45:54;;;;;;;9.93;3.40;;;31.90;93.00;;;;;;5073638;28;20812;-77
2021/06/30 08:48:26;;;;;;;9.25;3.15;;;31.80;94.00;;;;;;5102250;27;20179;-75
2021/06/30 08:50:56;;;;;;;10.50;3.28;;;31.90;93.30;;;;;;5083918;28;20190;-73
2021/06/30 08:53:24;;;;;;;8.07;3.00;;;31.90;93.20;;;;;;5084623;28;20194;-73
2021/06/30 08:55:51;;;;;;;9.20;3.00;;;31.80;93.40;;;;;;5102790;27;20178;-73
2021/06/30 08:58:19;;;;;;;7.85;3.17;;;32.10;92.30;;;;;;5105684;27;20268;-75
2021/06/30 09:00:46;;;;;;;8.55;3.63;;;32.10;92.40;;;;;;5078797;28;20182;-73
2021/06/30 09:03:17;;;;;;;17.67;3.40;;;32.40;92.50;;;;;;5084521;28;20198;-75
2021/06/30 09:06:11;;;;;;;14.15;3.10;;;32.40;92.60;;;;;;5083632;28;20198;-73
2021/06/30 09:08:47;;;;;;;6.32;2.80;;;32.30;92.80;;;;;;5076204;28;20210;-73
2021/06/30 09:11:20;;;;;;;10.52;3.35;;;32.50;92.30;;;;;;5083428;28;20182;-74
2021/06/30 09:14:07;;;;;;;12.80;3.33;;;32.50;91.60;;;;;;5091139;28;20178;-74
2021/06/30 09:17:00;;;;;;;11.60;2.85;;;32.70;90.70;;;;;;5088287;28;20281;-73
2021/06/30 09:20:08;;;;;;;13.70;3.55;;;32.70;89.50;;;;;;5068809;28;20237;-72
2021/06/30 09:22:57;;;;;;;12.02;3.67;;;32.80;89.90;;;;;;5007146;28;20196;-74
2021/06/30 09:25:40;;;;;;;11.07;3.03;;;32.80;90.40;;;;;;5004506;28;20437;-76
2021/06/30 09:28:25;;;;;;;11.85;3.45;;;33.20;89.00;;;;;;5042832;28;20278;-73
2021/06/30 09:31:10;;;;;;;7.80;2.60;;;33.00;91.40;;;;;;5113331;27;20189;-72
2021/06/30 09:33:53;;;;;;;11.40;3.00;;;33.10;90.20;;;;;;5076195;28;20273;-73
2021/06/30 09:36:24;;;;;;;9.18;2.88;;;33.30;90.00;;;;;;5080471;28;20894;-73
2021/06/30 09:38:52;;;;;;;8.80;3.38;;;33.40;89.10;;;;;;5062097;28;20198;-72
2021/06/30 09:41:25;;;;;;;8.05;3.17;;;33.40;89.40;;;;;;5095444;27;20181;-74
2021/06/30 09:44:03;;;;;;;6.45;2.88;;;33.50;88.80;;;;;;5088763;28;20189;-73
2021/06/30 09:46:30;;;;;;;6.75;2.60;;;33.50;87.80;;;;;;5088936;28;20209;-72
2021/06/30 09:49:09;;;;;;;12.68;3.38;;;33.60;85.80;;;;;;5069626;28;20305;-72
2021/06/30 09:51:37;;;;;;;8.13;3.00;;;33.80;84.60;;;;;;5103432;27;20184;-72
2021/06/30 09:54:18;;;;;;;9.75;3.00;;;33.90;84.80;;;;;;5091544;28;20765;-73
2021/06/30 09:57:00;;;;;;;10.18;2.97;;;33.90;83.40;;;;;;5107573;28;20272;-73
2021/06/30 09:59:35;;;;;;;11.35;2.92;;;34.00;84.30;;;;;;5104595;28;20197;-72
2021/06/30 10:02:17;;;;;;;9.63;2.80;;;33.90;81.80;;;;;;5093434;28;20594;-73
2021/06/30 10:05:03;;;;;;;7.20;2.45;;;34.10;82.10;;;;;;5087491;28;20181;-72
2021/06/30 10:07:32;;;;;;;9.98;2.72;;;34.10;79.90;;;;;;5089755;28;20178;-72
2021/06/30 10:10:09;;;;;;;7.95;2.50;;;34.00;79.20;;;;;;5082491;28;20210;-72
2021/06/30 10:12:37;;;;;;;9.20;2.50;;;34.20;77.10;;;;;;5098559;28;20193;-73
2021/06/30 10:15:07;;;;;;;8.27;2.35;;;34.20;77.20;;;;;;5103919;28;20637;-72
2021/06/30 10:17:36;;;;;;;9.93;2.95;;;34.10;79.90;;;;;;5101150;28;20660;-74
2021/06/30 10:20:03;;;;;;;8.07;2.45;;;34.30;75.60;;;;;;5080957;28;20190;-72
2021/06/30 10:22:30;;;;;;;9.98;2.40;;;34.40;75.40;;;;;;5064106;28;20198;-76
2021/06/30 10:24:58;;;;;;;4.47;2.47;;;34.30;75.90;;;;;;5100184;28;20193;-73
2021/06/30 10:27:25;;;;;;;10.45;2.90;;;34.40;77.20;;;;;;5097544;28;20189;-75
2021/06/30 10:29:58;;;;;;;10.35;2.45;;;34.50;72.50;;;;;;5104773;28;20209;-74
2021/06/30 10:32:26;;;;;;;12.65;2.70;;;34.50;74.10;;;;;;5087637;28;20182;-73
2021/06/30 10:34:57;;;;;;;8.02;2.47;;;34.50;74.90;;;;;;5078817;28;20193;-76
2021/06/30 10:37:31;;;;;;;9.73;2.67;;;34.70;74.70;;;;;;5083745;28;20187;-73
2021/06/30 10:40:13;;;;;;;6.93;2.35;;;34.80;72.20;;;;;;5099318;28;20217;-73
2021/06/30 10:42:46;;;;;;;4.35;2.17;;;34.90;70.90;;;;;;5077299;28;20190;-75
2021/06/30 10:45:16;;;;;;;7.60;2.40;;;34.80;71.00;;;;;;5103475;28;20873;-74
2021/06/30 10:47:55;;;;;;;6.55;2.78;;;34.50;71.80;;;;;;5101154;28;20194;-75
2021/06/30 10:50:56;;;;;;;8.35;2.63;;;34.80;70.50;;;;;;5085406;28;20256;-75
2021/06/30 10:53:25;;;;;;;4.93;2.58;;;34.60;70.40;;;;;;5107012;27;20216;-76
2021/06/30 10:56:01;;;;;;;8.73;2.38;;;34.70;69.60;;;;;;5085415;28;20179;-73
2021/06/30 10:58:32;;;;;;;14.02;2.60;;;34.80;68.90;;;;;;5106668;27;20893;-73
2021/06/30 11:01:00;;;;;;;8.45;2.60;;;34.70;68.30;;;;;;5104160;27;20221;-74
2021/06/30 11:03:54;;;;;;;7.82;2.40;;;34.70;68.20;;;;;;5089510;28;20259;-74
2021/06/30 11:06:29;;;;;;;10.43;2.70;;;34.30;68.90;;;;;;5107299;27;20557;-74
2021/06/30 11:09:24;;;;;;;11.00;2.38;;;34.50;68.70;;;;;;5092243;28;20209;-74
2021/06/30 11:11:59;;;;;;;10.35;2.67;;;34.60;67.40;;;;;;5068460;28;20655;-74
2021/06/30 11:14:40;;;;;;;6.40;2.58;;;34.80;67.10;;;;;;5098307;27;20196;-76
2021/06/30 11:17:11;;;;;;;7.40;2.58;;;34.80;68.10;;;;;;5107231;27;20265;-73
2021/06/30 11:19:39;;;;;;;8.20;2.45;;;34.70;68.20;;;;;;5088452;28;20696;-74
2021/06/30 11:22:11;;;;;;;6.72;2.17;;;34.60;65.30;;;;;;5092340;28;20220;-74
2021/06/30 11:24:42;;;;;;;5.38;2.45;;;34.80;65.90;;;;;;5068057;28;20186;-74
2021/06/30 11:27:22;;;;;;;7.80;2.75;;;34.90;64.50;;;;;;5100093;27;20213;-75
2021/06/30 11:30:02;;;;;;;6.82;2.20;;;34.60;69.90;;;;;;5083272;28;20233;-77
2021/06/30 11:32:32;;;;;;;14.40;2.50;;;34.60;66.40;;;;;;5099297;28;20186;-75
2021/06/30 11:35:19;;;;;;;6.75;2.78;;;34.90;65.50;;;;;;5081933;28;20273;-74
2021/06/30 11:38:15;;;;;;;5.63;2.38;;;34.90;65.40;;;;;;5081681;28;20190;-75
2021/06/30 11:40:54;;;;;;;7.18;2.67;;;34.90;64.20;;;;;;5086818;28;20193;-74
2021/06/30 11:43:26;;;;;;;6.00;2.28;;;35.10;63.40;;;;;;5074142;28;20254;-74
2021/06/30 11:46:02;;;;;;;4.25;2.30;;;34.70;67.20;;;;;;5084973;28;20190;-73
2021/06/30 11:48:32;;;;;;;8.13;2.40;;;34.70;64.20;;;;;;5091482;28;20208;-75
2021/06/30 11:51:11;;;;;;;7.07;2.30;;;34.60;63.70;;;;;;5091994;28;20235;-75
2021/06/30 11:53:47;;;;;;;8.10;2.45;;;34.90;63.10;;;;;;5102512;27;20304;-75
2021/06/30 11:56:32;;;;;;;9.65;2.40;;;34.80;64.50;;;;;;5091441;28;20184;-74
2021/06/30 11:59:01;;;;;;;12.32;2.60;;;34.70;64.30;;;;;;5093112;28;20597;-75
2021/06/30 12:01:34;;;;;;;11.15;2.30;;;35.00;63.50;;;;;;5089928;28;20592;-74
2021/06/30 12:04:23;;;;;;;6.10;2.45;;;34.90;63.20;;;;;;5086563;28;20213;-75
2021/06/30 12:07:00;;;;;;;13.25;2.97;;;35.10;64.10;;;;;;5084550;28;20264;-74
2021/06/30 12:09:32;;;;;;;5.80;2.25;;;35.00;63.50;;;;;;5089032;28;20709;-75
2021/06/30 12:12:11;;;;;;;5.93;2.67;;;35.20;62.80;;;;;;5073901;28;20189;-74
2021/06/30 12:14:49;;;;;;;3.50;2.15;;;34.90;63.50;;;;;;5068233;28;20185;-75
2021/06/30 12:17:19;;;;;;;6.00;2.13;;;35.20;62.40;;;;;;5083700;28;20178;-74
2021/06/30 12:19:52;;;;;;;6.80;2.10;;;35.20;63.40;;;;;;5069740;28;20216;-72
2021/06/30 12:22:27;;;;;;;8.18;2.35;;;35.30;62.50;;;;;;5100059;27;20179;-72
2021/06/30 12:25:12;;;;;;;4.45;2.10;;;35.30;62.40;;;;;;5100699;27;20185;-74
2021/06/30 12:28:13;;;;;;;10.60;2.60;;;35.20;61.60;;;;;;5091768;28;20181;-75
2021/06/30 12:30:39;;;;;;;4.55;2.10;;;35.40;62.00;;;;;;5075067;28;20221;-75
2021/06/30 12:33:13;;;;;;;4.75;2.05;;;35.00;61.70;;;;;;5106818;27;20201;-73
2021/06/30 12:35:46;;;;;;;11.35;2.38;;;35.10;61.70;;;;;;5105838;27;20658;-74
2021/06/30 12:38:31;;;;;;;10.40;2.08;;;35.10;61.90;;;;;;5082355;28;20208;-74
2021/06/30 12:41:07;;;;;;;5.40;1.88;;;35.40;61.70;;;;;;5103628;27;20234;-75
2021/06/30 12:43:34;;;;;;;11.02;2.70;;;35.30;61.20;;;;;;5107886;27;20268;-75
2021/06/30 12:46:00;;;;;;;10.55;2.20;;;35.50;59.80;;;;;;5086065;28;20175;-75
2021/06/30 12:48:35;;;;;;;4.95;2.10;;;35.50;59.70;;;;;;5078044;28;20519;-75
2021/06/30 12:51:15;;;;;;;9.13;2.28;;;35.30;59.30;;;;;;5089314;28;20623;-77
2021/06/30 12:53:44;;;;;;;5.07;2.22;;;35.00;60.80;;;;;;5118202;27;20190;-76
2021/06/30 12:56:28;;;;;;;11.32;2.40;;;35.10;60.90;;;;;;5090274;28;20399;-76